createdAt,value
2018-08-20T00:01:55.057Z,22.70
2018-08-20T00:04:24.171Z,22.70
2018-08-20T00:06:57.809Z,22.70
2018-08-20T00:09:33.785Z,22.70
2018-08-20T00:12:02.866Z,22.70
2018-08-20T00:14:32.374Z,22.70
2018-08-20T00:17:01.468Z,22.70
2018-08-20T00:19:30.101Z,22.70
2018-08-20T00:22:00.745Z,22.70
2018-08-20T00:24:29.385Z,22.70
2018-08-20T00:26:59.225Z,22.70
2018-08-20T00:29:27.797Z,22.70
2018-08-20T00:31:58.402Z,22.70
2018-08-20T00:34:26.984Z,22.70
2018-08-20T00:54:16.655Z,22.80
2018-08-20T00:56:45.790Z,22.80
2018-08-20T00:59:14.225Z,22.80
2018-08-20T01:01:42.798Z,22.80
2018-08-20T01:21:33.123Z,22.20
2018-08-20T01:24:02.353Z,22.20
2018-08-20T01:43:52.401Z,22.20
2018-08-20T01:46:21.450Z,22.20
2018-08-20T01:48:49.966Z,22.20
2018-08-20T01:51:18.879Z,22.20
2018-08-20T01:53:47.466Z,22.10
2018-08-20T01:56:16.009Z,22.00
2018-08-20T02:16:07.266Z,22.10
2018-08-20T02:18:35.852Z,22.00
2018-08-20T02:21:04.442Z,22.00
2018-08-20T02:23:33.152Z,22.00
2018-08-20T02:43:21.630Z,21.70
2018-08-20T02:45:51.155Z,21.70
2018-08-20T02:48:19.610Z,21.60
2018-08-20T02:50:48.069Z,21.60
2018-08-20T03:10:37.678Z,21.50
2018-08-20T03:13:06.196Z,21.50
2018-08-20T03:32:55.106Z,21.40
2018-08-20T03:35:23.548Z,21.30
2018-08-20T03:55:13.387Z,21.00
2018-08-20T03:57:41.921Z,21.00
2018-08-20T04:00:11.589Z,21.00
2018-08-20T04:02:40.166Z,21.00
2018-08-20T04:05:08.724Z,20.90
2018-08-20T04:07:37.195Z,20.90
2018-08-20T04:10:06.513Z,20.90
2018-08-20T04:12:35.027Z,20.80
2018-08-20T04:15:03.461Z,20.90
2018-08-20T04:17:31.960Z,20.80
2018-08-20T04:20:00.520Z,20.90
2018-08-20T04:22:28.988Z,20.90
2018-08-20T04:24:57.521Z,20.80
2018-08-20T04:27:27.011Z,20.70
2018-08-20T04:47:17.537Z,20.50
2018-08-20T04:49:46.085Z,20.50
2018-08-20T04:52:14.631Z,20.50
2018-08-20T04:54:43.238Z,20.40
2018-08-20T04:57:12.441Z,20.40
2018-08-20T04:59:41.692Z,20.30
2018-08-20T05:02:10.225Z,20.30
2018-08-20T05:04:39.789Z,20.30
2018-08-20T05:24:29.388Z,20.60
2018-08-20T05:26:57.909Z,20.60
2018-08-20T05:29:26.394Z,20.60
2018-08-20T05:31:55.045Z,20.70
2018-08-20T05:34:24.773Z,20.70
2018-08-20T05:36:53.275Z,20.70
2018-08-20T05:39:21.973Z,20.70
2018-08-20T05:41:50.598Z,20.70
2018-08-20T06:01:40.171Z,20.80
2018-08-20T06:04:08.663Z,20.80
2018-08-20T06:06:37.435Z,20.90
2018-08-20T06:09:08.165Z,20.90
2018-08-20T06:28:58.372Z,20.90
2018-08-20T06:31:27.508Z,20.90
2018-08-20T06:33:56.793Z,20.90
2018-08-20T06:36:25.262Z,20.90
2018-08-20T06:38:53.904Z,21.00
2018-08-20T06:41:22.408Z,21.00
2018-08-20T06:43:50.851Z,21.10
2018-08-20T06:46:19.454Z,21.10
2018-08-20T06:48:48.171Z,21.10
2018-08-20T06:51:16.648Z,21.10
2018-08-20T06:53:45.153Z,21.10
2018-08-20T06:56:13.630Z,21.10
2018-08-20T06:58:42.106Z,21.10
2018-08-20T07:01:11.198Z,21.20
2018-08-20T07:03:40.359Z,21.20
2018-08-20T07:06:09.222Z,21.20
2018-08-20T07:08:37.772Z,21.20
2018-08-20T07:11:06.954Z,21.30
2018-08-20T07:13:36.614Z,21.30
2018-08-20T07:16:06.545Z,21.30
2018-08-20T07:18:35.863Z,21.40
2018-08-20T07:21:04.360Z,21.40
2018-08-20T07:23:33.168Z,21.40
2018-08-20T07:26:02.269Z,21.50
2018-08-20T07:28:30.693Z,21.50
2018-08-20T07:48:21.107Z,21.70
2018-08-20T07:50:51.181Z,21.70
2018-08-20T07:53:20.283Z,21.70
2018-08-20T07:55:48.799Z,21.80
2018-08-20T08:15:37.822Z,22.00
2018-08-20T08:18:06.750Z,22.10
2018-08-20T08:20:35.218Z,22.10
2018-08-20T08:40:24.393Z,22.30
2018-08-20T08:42:53.730Z,22.30
2018-08-20T08:45:22.232Z,22.40
2018-08-20T08:47:52.350Z,22.40
2018-08-20T08:50:20.867Z,22.40
2018-08-20T08:52:49.294Z,22.50
2018-08-20T08:55:18.554Z,22.50
2018-08-20T09:15:12.026Z,22.70
2018-08-20T09:17:41.542Z,22.80
2018-08-20T09:20:12.430Z,22.80
2018-08-20T09:22:41.251Z,22.80
2018-08-20T09:25:12.108Z,22.80
2018-08-20T09:27:41.690Z,22.80
2018-08-20T09:30:14.458Z,22.90
2018-08-20T09:32:44.133Z,23.00
2018-08-20T09:35:14.886Z,23.00
2018-08-20T09:37:43.344Z,23.10
2018-08-20T09:40:12.369Z,23.10
2018-08-20T09:42:42.303Z,23.10
2018-08-20T09:45:11.144Z,23.20
2018-08-20T10:05:01.700Z,23.40
2018-08-20T10:07:30.375Z,23.40
2018-08-20T10:09:59.372Z,23.50
2018-08-20T10:12:27.872Z,23.50
2018-08-20T10:14:56.317Z,23.50
2018-08-20T10:17:25.413Z,23.50
2018-08-20T10:19:54.174Z,23.50
2018-08-20T10:22:23.677Z,23.50
2018-08-20T10:24:53.631Z,23.50
2018-08-20T10:27:22.161Z,23.50
2018-08-20T10:29:50.721Z,23.60
2018-08-20T10:32:19.929Z,23.60
2018-08-20T10:34:49.093Z,23.70
2018-08-20T10:37:18.135Z,23.70
2018-08-20T10:39:46.683Z,23.80
2018-08-20T10:42:16.469Z,23.80
2018-08-20T10:44:50.156Z,23.90
2018-08-20T11:04:40.868Z,24.00
2018-08-20T11:07:09.487Z,24.10
2018-08-20T11:26:59.994Z,24.20
2018-08-20T11:46:51.073Z,24.60
2018-08-20T11:49:19.604Z,24.60
2018-08-20T11:51:48.642Z,24.60
2018-08-20T11:54:17.134Z,24.60
2018-08-20T11:56:45.709Z,24.50
2018-08-20T11:59:14.159Z,24.50
2018-08-20T12:01:43.298Z,24.50
2018-08-20T12:04:11.852Z,24.50
2018-08-20T12:06:40.389Z,24.60
2018-08-20T12:09:08.905Z,24.70
2018-08-20T12:11:37.366Z,24.70
2018-08-20T12:14:06.566Z,24.70
2018-08-20T12:16:35.585Z,24.70
2018-08-20T12:19:04.091Z,24.80
2018-08-20T12:21:32.580Z,24.80
2018-08-20T12:24:01.742Z,24.80
2018-08-20T12:43:51.723Z,25.30
2018-08-20T12:46:20.560Z,25.40
2018-08-20T12:48:51.132Z,25.40
2018-08-20T13:08:40.704Z,25.70
2018-08-20T13:11:09.187Z,25.70
2018-08-20T13:13:38.321Z,25.80
2018-08-20T13:16:07.424Z,25.90
2018-08-20T13:18:35.873Z,25.90
2018-08-20T13:21:05.171Z,25.90
2018-08-20T13:23:33.806Z,25.90
2018-08-20T13:26:02.232Z,25.90
2018-08-20T13:28:31.218Z,26.00
2018-08-20T13:31:00.338Z,26.00
2018-08-20T13:50:50.570Z,26.10
2018-08-20T13:53:19.130Z,26.20
2018-08-20T13:55:47.685Z,26.30
2018-08-20T13:58:17.106Z,26.30
2018-08-20T14:00:45.821Z,26.40
2018-08-20T14:03:14.507Z,26.50
2018-08-20T14:05:43.731Z,26.50
2018-08-20T14:08:12.401Z,26.60
2018-08-20T14:10:41.507Z,26.60
2018-08-20T14:13:10.705Z,26.70
2018-08-20T14:15:40.767Z,26.80
2018-08-20T14:18:09.216Z,26.90
2018-08-20T14:20:37.805Z,27.00
2018-08-20T14:23:06.607Z,27.00
2018-08-20T14:25:35.914Z,27.10
2018-08-20T14:28:04.531Z,27.00
2018-08-20T14:30:33.044Z,27.00
2018-08-20T14:33:01.698Z,26.90
2018-08-20T14:35:30.134Z,27.00
2018-08-20T14:37:58.854Z,27.20
2018-08-20T14:40:27.400Z,27.30
2018-08-20T15:00:17.349Z,27.80
2018-08-20T15:02:45.808Z,27.90
2018-08-20T15:05:14.535Z,27.90
2018-08-20T15:07:43.084Z,27.90
2018-08-20T15:10:11.496Z,28.10
2018-08-20T15:12:40.055Z,28.10
2018-08-20T15:15:09.019Z,28.10
2018-08-20T15:17:37.535Z,28.20
2018-08-20T15:20:07.685Z,28.20
2018-08-20T15:22:36.374Z,28.20
2018-08-20T15:25:05.441Z,28.20
2018-08-20T15:27:33.967Z,28.10
2018-08-20T15:30:03.490Z,28.00
2018-08-20T15:49:53.393Z,28.30
2018-08-20T16:09:43.510Z,28.20
2018-08-20T16:29:32.499Z,27.90
2018-08-20T16:32:00.977Z,27.90
2018-08-20T16:51:50.737Z,27.40
2018-08-20T16:54:19.458Z,27.40
2018-08-20T16:56:47.865Z,27.30
2018-08-20T16:59:16.347Z,27.30
2018-08-20T17:01:46.000Z,27.20
2018-08-20T17:04:29.251Z,27.20
2018-08-20T17:06:59.417Z,27.20
2018-08-20T17:09:28.237Z,27.20
2018-08-20T17:11:56.732Z,27.10
2018-08-20T17:14:25.382Z,27.10
2018-08-20T17:34:16.632Z,26.70
2018-08-20T17:36:45.180Z,26.60
2018-08-20T17:39:13.731Z,26.60
2018-08-20T17:59:09.231Z,26.10
2018-08-20T18:01:37.754Z,26.10
2018-08-20T18:04:06.760Z,26.10
2018-08-20T18:06:53.226Z,26.00
2018-08-20T18:09:22.495Z,26.00
2018-08-20T18:11:54.281Z,25.90
2018-08-20T18:14:24.585Z,25.90
2018-08-20T18:16:53.414Z,25.80
2018-08-20T18:19:22.423Z,25.70
2018-08-20T18:21:50.942Z,25.70
2018-08-20T18:42:14.903Z,25.40
2018-08-20T18:44:43.751Z,25.30
2018-08-20T18:47:13.789Z,25.20
2018-08-20T19:07:07.097Z,25.10
2018-08-20T19:09:36.184Z,25.10
2018-08-20T19:12:05.113Z,25.10
2018-08-20T19:31:55.601Z,24.90
2018-08-20T19:34:24.655Z,24.80
2018-08-20T19:36:53.176Z,24.80
2018-08-20T19:56:42.989Z,24.80
2018-08-20T19:59:13.734Z,24.70
2018-08-20T20:01:42.489Z,24.70
2018-08-20T20:04:15.189Z,24.70
2018-08-20T20:24:06.046Z,24.60
2018-08-20T20:26:34.598Z,24.60
2018-08-20T20:46:24.866Z,24.50
2018-08-20T21:06:36.737Z,24.40
2018-08-20T21:09:08.189Z,24.40
2018-08-20T21:11:37.615Z,24.40
2018-08-20T21:14:06.207Z,24.40
2018-08-20T21:16:34.706Z,24.30
2018-08-20T21:19:04.204Z,24.30
2018-08-20T21:21:33.779Z,24.30
2018-08-20T21:24:05.244Z,24.30
2018-08-20T21:26:33.811Z,24.30
2018-08-20T21:29:03.719Z,24.30
2018-08-20T21:48:54.134Z,24.10
2018-08-20T21:51:29.623Z,24.10
2018-08-20T21:53:58.512Z,24.10
2018-08-20T21:57:02.410Z,24.00
2018-08-20T21:59:30.896Z,24.00
2018-08-20T22:02:00.327Z,24.00
2018-08-20T22:04:30.428Z,24.00
2018-08-20T22:06:59.854Z,24.00
2018-08-20T22:26:55.126Z,23.80
2018-08-20T22:29:24.203Z,23.80
2018-08-20T22:49:14.698Z,23.30
2018-08-20T23:09:44.510Z,23.30
2018-08-20T23:12:13.102Z,23.30
2018-08-20T23:14:41.586Z,23.20
2018-08-20T23:17:10.024Z,23.20
2018-08-20T23:19:38.553Z,23.20
2018-08-20T23:22:08.003Z,23.20
2018-08-20T23:24:39.262Z,23.20
2018-08-20T23:27:07.757Z,23.10
2018-08-20T23:29:36.271Z,23.10
2018-08-20T23:32:05.589Z,23.10
2018-08-20T23:34:34.686Z,23.10
2018-08-20T23:37:03.298Z,23.00
2018-08-20T23:39:31.740Z,23.00
2018-08-20T23:42:00.234Z,23.00
2018-08-20T23:44:28.681Z,22.90
2018-08-20T23:46:57.249Z,22.90
2018-08-20T23:49:25.701Z,22.80
